EDDC/DRS METAR and TAF weather

Enter ICAO airport designator
Station Type Date Time Source
EDDC METAR 2021/10/22 19:20 UTC NOAA

EDDC 221920Z 27013KT 240V310 9999 FEW032 08/05 Q1015 TEMPO 26015G25KT


Station Type Date Time Source
EDDC Decoded METAR 2021/10/22 19:20 UTC NOAA

Dresden-Klotzsche, Germany (EDDC) 51-08N 013-45E 232M
Oct 22, 2021 - 03:20 PM EDT / 2021.10.22 1920 UTC
Wind: from the W (270 degrees) at 15 MPH (13 KT) (direction variable):0
Visibility: greater than 7 mile(s):0
Sky conditions: mostly clear
Temperature: 46 F (8 C)
Dew Point: 41 F (5 C)
Relative Humidity: 81%
Pressure (altimeter): 29.97 in. Hg (1015 hPa)
ob: EDDC 221920Z 27013KT 240V310 9999 FEW032 08/05 Q1015 TEMPO 26015G25KT
cycle: 19

Station Type Date Time Source
EDDC TAF 2021/10/22 18:27 UTC NOAA

TAF EDDC 221700Z 2218/2318 26015G30KT 9999 SCT030
TEMPO 2218/2221 4500 SHRA BKN012 BKN030CB
BECMG 2220/2222 26012KT
TEMPO 2308/2314 29015G25KT
BECMG 2314/2316 28006KT

Example: see airport list